map of KGI home
KGI - Airport
Location
City:  Kalgoorlie, Western Australia, Australia
Name:Kalgoorlie-Boulder Airport
ICAO:YPKG
IATA:KGI

Details
Type:Airport (Aerodrome, Airfield)
Latitude:3047'22"S (-30.789443)
Longitude:12127'42"E (121.461667)
Datum:WGS 1984
Elevation:1203 ft (367 m)
Variation:0.83E (WMM2015 magnetic declination)
-0.03 annual change
Runways:2
Longest:6562 × 148 ft (2000 × 45 m), paved

Time
Time Zone:UTC+8
Local Time:

Weather
METAR:YPKG 121800Z AUTO 14006KT 9999 // NCD 16/10 Q1016
TAF:YPKG 121709Z 1218/1318 13006KT CAVOK

Related Locations
Nearby:
Farthest:BDA: 12066 mi / 19418 km
Bermuda (St. George) [L.F. Wade Intl (Bermuda Intl, Kindley Field)], BM

Find:

   beyond  
but within

Other Information
Maps:
NOTAMs:
Links:
Sources:

  
  • flag of Australia
  • flag of Western Australia
  

Sectional Chart

Flight Planning
at skyvector.com

Satellite Image

Google Maps Satellite view

 

Copyright © 2004-2018 Karl L. Swartz. All rights reserved.
The Great Circle Mapper name and logo are trademarks of the Great Circle Mapper.
All other trademarks mentioned herein belong to their respective owners.
Please see credits for attibutions and further copyright information.

  Follow gcmap on Facebook Follow gcmap on Twitter Follow gcmap on Google+ GCmap on LinkedIn

hCard Microformat

Geo Microformat